WetterOnline ( http://www.wetteronline.de )

Wetter aktuell Alassio

Aktuelles Wetter: Capo Mele (221m)

6-stündlich | Neueste Meldungen
Ortszeit Temperatur Wetter
Mi, 12.12. 19:00 8.0° C bedeckt
Mi, 12.12. 13:00 9.8° C wolkig
Mi, 12.12. 7:00 8.8° C wolkig
Mi, 12.12. 1:00 10.0° C wolkig
Di, 11.12. 19:00 11.0° C wolkig
Di, 11.12. 13:00 15.8° C wolkig
Di, 11.12. 7:00 10.0° C wolkenlos
Di, 11.12. 1:00 11.0° C wolkenlos
Ortszeit Temperatur Wetter
Mi, 12.12. 19:00 8.0° C bedeckt
Mi, 12.12. 18:55 8° C bewölkt
Mi, 12.12. 18:00 8.4° C bedeckt
Mi, 12.12. 17:55 8° C bewölkt
Mi, 12.12. 17:00 8.8° C bedeckt
Mi, 12.12. 16:55 9° C bewölkt
Mi, 12.12. 16:00 9.0° C bedeckt
Mi, 12.12. 15:55 9° C bewölkt
Mi, 12.12. 15:00 9.6° C bedeckt
Ortszeit Relative Feuchte Sichtweite
Mi, 12.12. 19:00 59% 20 km
Mi, 12.12. 13:00 62% 20 km
Mi, 12.12. 7:00 53% 30 km
Mi, 12.12. 1:00 51% 30 km
Di, 11.12. 19:00 48% 35 km
Di, 11.12. 13:00 42% >50 km
Di, 11.12. 7:00 65% 50 km
Di, 11.12. 1:00 61% 50 km
Ortszeit Relative Feuchte Sichtweite
Mi, 12.12. 19:00 59% 20 km
Mi, 12.12. 18:55 61% >10 km
Mi, 12.12. 18:00 60% 20 km
Mi, 12.12. 17:55 61% >10 km
Mi, 12.12. 17:00 61% 20 km
Mi, 12.12. 16:55 61% >10 km
Mi, 12.12. 16:00 60% 20 km
Mi, 12.12. 15:55 61% >10 km
Mi, 12.12. 15:00 61% 20 km
Ortszeit Niederschlagsmenge Niederschlagsart
Mi, 12.12. 19:00 0.0 l/m2 in 12 Std. -
Mi, 12.12. 13:00 0.0 l/m2 in 6 Std. -
Mi, 12.12. 7:00 0.0 l/m2 in 12 Std. -
Mi, 12.12. 1:00 0.0 l/m2 in 6 Std. -
Di, 11.12. 19:00 0.0 l/m2 in 12 Std. -
Di, 11.12. 13:00 0.0 l/m2 in 6 Std. -
Di, 11.12. 7:00 0.0 l/m2 in 12 Std. -
Di, 11.12. 1:00 0.0 l/m2 in 6 Std. -
Ortszeit Niederschlagsmenge Niederschlagsart
Mi, 12.12. 19:00 keine Meldung -
Mi, 12.12. 18:55 keine Meldung -
Mi, 12.12. 18:00 keine Meldung -
Mi, 12.12. 17:55 keine Meldung -
Mi, 12.12. 17:00 keine Meldung -
Mi, 12.12. 16:55 keine Meldung -
Mi, 12.12. 16:00 keine Meldung -
Mi, 12.12. 15:55 keine Meldung -
Mi, 12.12. 15:00 keine Meldung -
Ortszeit Stärke Spitze Richtung
km/h Bft. km/h Grad Sektor
Mi, 12.12. 19:00 7 2 - 290° W
Mi, 12.12. 13:00 9 2 - 300° NW
Mi, 12.12. 7:00 0 0 - - -
Mi, 12.12. 1:00 0 0 - - -
Di, 11.12. 19:00 0 0 - - -
Di, 11.12. 13:00 7 2 - 30° NO
Di, 11.12. 7:00 0 0 - - -
Di, 11.12. 1:00 9 2 - 200° S
Ortszeit Stärke Spitze Richtung
km/h Bft. km/h Grad Sektor
Mi, 12.12. 19:00 7 2 - 290° W
Mi, 12.12. 18:55 7 2 - 290° W
Mi, 12.12. 18:00 9 2 - 290° W
Mi, 12.12. 17:55 9 2 - 290° W
Mi, 12.12. 17:00 9 2 - 290° W
Mi, 12.12. 16:55 9 2 - 290° W
Mi, 12.12. 16:00 9 2 - 310° NW
Mi, 12.12. 15:55 9 2 - 310° NW
Mi, 12.12. 15:00 9 2 - 300° NW
Ortszeit Untergrenze Bedeckung Gattung
total tief tief mittel hoch
Mi, 12.12. 19:00 750 m 8/8 8/8 Cu - -
Mi, 12.12. 13:00 750 m 7/8 6/8 Cu Ac -
Mi, 12.12. 7:00 750 m 6/8 3/8 Cu - -
Mi, 12.12. 1:00 750 m 5/8 2/8 Cu - -
Di, 11.12. 19:00 690 m 6/8 6/8 Cu - -
Di, 11.12. 13:00 750 m 6/8 5/8 Cu Ac -
Di, 11.12. 7:00 - 0/8 0/8 - - -
Di, 11.12. 1:00 - 0/8 0/8 - - -
Ortszeit Bedeckungsgrad in Achtel und Wolkenuntergrenze
Mi, 12.12. 19:00 3(750m) 6(900m)
Mi, 12.12. 18:55 3-4(750m) 5-7(900m)
Mi, 12.12. 18:00 3(750m) 6(900m)
Mi, 12.12. 17:55 3-4(750m) 5-7(900m)
Mi, 12.12. 17:00 3(750m) 6(900m)
Mi, 12.12. 16:55 3-4(750m) 5-7(900m)
Mi, 12.12. 16:00 3(750m) 6(900m)
Mi, 12.12. 15:55 3-4(750m) 5-7(900m)
Mi, 12.12. 15:00 3(750m) 6(900m)
Ortszeit Luftdruck NN (hPa) Tendenz (hPa in 3 Std.)
Mi, 12.12. 19:00 1018 - 0,7
Mi, 12.12. 13:00 1019 - 0,2
Mi, 12.12. 7:00 1019 - 0,6
Mi, 12.12. 1:00 1020 + 0,1
Di, 11.12. 19:00 1019 + 0,3
Di, 11.12. 13:00 1019 - 0,1
Di, 11.12. 7:00 1019 - 0,6
Di, 11.12. 1:00 1020 - 0,5
Ortszeit Luftdruck NN (hPa) Tendenz (hPa in 3 Std.)
Mi, 12.12. 19:00 1018 - 0,7
Mi, 12.12. 18:55 1017 keine Meldung
Mi, 12.12. 18:00 1018 - 0,7
Mi, 12.12. 17:55 1017 keine Meldung
Mi, 12.12. 17:00 1018 - 0,6
Mi, 12.12. 16:55 1017 keine Meldung
Mi, 12.12. 16:00 1019 - 0,9
Mi, 12.12. 15:55 1018 keine Meldung
Mi, 12.12. 15:00 1019 - 1,1
Ortszeit Schneehöhe (cm)
Mi, 12.12. 19:00 -
Mi, 12.12. 13:00 -
Mi, 12.12. 7:00 0
Mi, 12.12. 1:00 -
Di, 11.12. 19:00 -
Di, 11.12. 13:00 -
Di, 11.12. 7:00 0
Di, 11.12. 1:00 -
Ortszeit Schneehöhe (cm)
Mi, 12.12. 19:00 -
Mi, 12.12. 18:55 -
Mi, 12.12. 18:00 -
Mi, 12.12. 17:55 -
Mi, 12.12. 17:00 -
Mi, 12.12. 16:55 -
Mi, 12.12. 16:00 -
Mi, 12.12. 15:55 -
Mi, 12.12. 15:00 -
Link zu dieser Seite / Seite empfehlen

Das Wetter in ...